createdAt,value
2017-06-21T00:01:33.049Z,10.23
2017-06-21T00:03:59.493Z,9.87
2017-06-21T00:06:25.905Z,10.20
2017-06-21T00:08:52.316Z,9.30
2017-06-21T00:11:18.743Z,10.30
2017-06-21T00:13:45.884Z,11.23
2017-06-21T00:16:12.273Z,11.27
2017-06-21T00:18:38.683Z,10.27
2017-06-21T00:21:05.108Z,9.47
2017-06-21T00:23:31.506Z,12.43
2017-06-21T00:25:58.009Z,9.30
2017-06-21T00:28:24.452Z,11.10
2017-06-21T00:30:50.871Z,9.20
2017-06-21T00:33:17.279Z,9.10
2017-06-21T00:35:43.748Z,9.43
2017-06-21T00:38:10.150Z,9.47
2017-06-21T00:40:36.617Z,9.47
2017-06-21T00:43:03.020Z,8.97
2017-06-21T00:45:29.436Z,9.43
2017-06-21T00:47:55.853Z,9.00
2017-06-21T00:50:22.996Z,8.87
2017-06-21T00:52:49.388Z,9.43
2017-06-21T00:55:15.794Z,8.20
2017-06-21T00:57:42.195Z,8.60
2017-06-21T01:00:08.629Z,10.03
2017-06-21T01:02:35.813Z,10.17
2017-06-21T01:05:02.278Z,9.33
2017-06-21T01:07:28.665Z,9.67
2017-06-21T01:09:55.839Z,9.27
2017-06-21T01:12:22.266Z,10.57
2017-06-21T01:14:48.662Z,10.27
2017-06-21T01:17:15.281Z,9.70
2017-06-21T01:19:41.739Z,9.20
2017-06-21T01:22:08.881Z,9.23
2017-06-21T01:24:36.008Z,8.73
2017-06-21T01:27:02.419Z,9.50
2017-06-21T01:29:28.827Z,9.50
2017-06-21T01:31:55.212Z,9.67
2017-06-21T01:34:21.635Z,10.27
2017-06-21T01:36:48.025Z,9.57
2017-06-21T01:39:14.458Z,9.13
2017-06-21T01:41:40.957Z,10.00
2017-06-21T01:44:08.169Z,9.80
2017-06-21T01:46:34.587Z,9.53
2017-06-21T01:49:01.049Z,10.53
2017-06-21T01:51:27.561Z,10.93
2017-06-21T01:53:53.996Z,10.30
2017-06-21T01:56:20.466Z,11.20
2017-06-21T01:58:46.903Z,9.30
2017-06-21T02:01:13.370Z,10.87
2017-06-21T02:03:39.786Z,10.73
2017-06-21T02:06:06.934Z,11.43
2017-06-21T02:08:33.348Z,10.87
2017-06-21T02:10:59.767Z,10.90
2017-06-21T02:13:26.163Z,11.00
2017-06-21T02:15:52.560Z,10.37
2017-06-21T02:18:18.976Z,10.53
2017-06-21T02:20:45.376Z,10.60
2017-06-21T02:23:11.812Z,9.97
2017-06-21T02:25:38.204Z,12.10
2017-06-21T02:28:05.342Z,12.17
2017-06-21T02:30:31.753Z,12.13
2017-06-21T02:32:58.149Z,11.80
2017-06-21T02:35:24.561Z,11.57
2017-06-21T02:37:50.969Z,11.73
2017-06-21T02:40:17.411Z,11.77
2017-06-21T02:42:44.557Z,10.97
2017-06-21T02:45:11.699Z,10.37
2017-06-21T02:47:38.081Z,11.10
2017-06-21T02:50:04.567Z,12.27
2017-06-21T02:52:31.804Z,11.37
2017-06-21T02:54:58.988Z,12.00
2017-06-21T02:57:26.139Z,11.93
2017-06-21T02:59:53.359Z,11.33
2017-06-21T03:02:19.806Z,11.53
2017-06-21T03:04:46.955Z,11.47
2017-06-21T03:07:13.346Z,11.93
2017-06-21T03:09:39.778Z,11.70
2017-06-21T03:12:06.186Z,11.43
2017-06-21T03:14:32.584Z,11.47
2017-06-21T03:16:58.985Z,11.20
2017-06-21T03:19:25.430Z,11.37
2017-06-21T03:21:51.840Z,12.13
2017-06-21T03:24:18.245Z,12.20
2017-06-21T03:26:44.641Z,11.83
2017-06-21T03:29:11.071Z,12.00
2017-06-21T03:31:37.485Z,10.83
2017-06-21T03:34:03.910Z,12.37
2017-06-21T03:36:30.308Z,12.90
2017-06-21T03:38:56.720Z,13.70
2017-06-21T03:41:23.863Z,12.63
2017-06-21T03:43:50.294Z,11.90
2017-06-21T03:46:17.425Z,14.70
2017-06-21T03:48:43.821Z,12.60
2017-06-21T03:51:10.463Z,13.20
2017-06-21T03:53:36.886Z,12.03
2017-06-21T03:56:03.277Z,13.47
2017-06-21T03:58:29.687Z,12.20
2017-06-21T04:00:56.094Z,12.53
2017-06-21T04:03:22.515Z,12.53
2017-06-21T04:05:48.906Z,12.77
2017-06-21T04:08:15.318Z,12.20
2017-06-21T04:10:41.709Z,13.83
2017-06-21T04:13:08.137Z,13.43
2017-06-21T04:15:34.535Z,13.00
2017-06-21T04:18:01.038Z,11.90
2017-06-21T04:20:27.447Z,13.60
2017-06-21T04:22:53.843Z,12.60
2017-06-21T04:25:21.882Z,12.83
2017-06-21T04:27:48.283Z,14.13
2017-06-21T04:30:15.158Z,12.70
2017-06-21T04:32:41.588Z,14.83
2017-06-21T04:35:08.113Z,13.30
2017-06-21T04:37:34.527Z,14.40
2017-06-21T04:40:00.980Z,14.50
2017-06-21T04:42:27.381Z,14.97
2017-06-21T04:44:53.785Z,14.63
2017-06-21T04:47:20.218Z,12.80
2017-06-21T04:49:46.628Z,13.43
2017-06-21T04:52:13.048Z,15.23
2017-06-21T04:54:39.461Z,14.67
2017-06-21T04:57:05.859Z,16.60
2017-06-21T04:59:32.362Z,17.53
2017-06-21T05:01:58.745Z,16.40
2017-06-21T05:04:25.139Z,16.50
2017-06-21T05:06:51.548Z,18.10
2017-06-21T05:09:17.911Z,19.40
2017-06-21T05:11:44.365Z,17.10
2017-06-21T05:14:11.588Z,18.10
2017-06-21T05:16:38.019Z,15.70
2017-06-21T05:19:04.471Z,15.40
2017-06-21T05:21:31.617Z,15.40
2017-06-21T05:23:58.769Z,15.30
2017-06-21T05:26:25.943Z,16.47
2017-06-21T05:28:52.350Z,14.63
2017-06-21T05:31:18.790Z,15.30
2017-06-21T05:33:45.241Z,17.20
2017-06-21T05:36:11.712Z,15.97
2017-06-21T05:38:38.113Z,14.83
2017-06-21T05:41:04.525Z,15.33
2017-06-21T05:43:31.713Z,15.10
2017-06-21T05:45:58.130Z,15.30
2017-06-21T05:48:24.532Z,14.43
2017-06-21T05:50:51.685Z,14.87
2017-06-21T05:53:18.834Z,13.80
2017-06-21T05:55:45.963Z,14.00
2017-06-21T05:58:12.457Z,12.83
2017-06-21T06:00:38.934Z,12.30
2017-06-21T06:03:05.357Z,13.23
2017-06-21T06:05:31.817Z,13.10
2017-06-21T06:07:58.971Z,12.73
2017-06-21T06:10:26.111Z,12.63
2017-06-21T06:12:53.262Z,12.27
2017-06-21T06:15:20.426Z,11.70
2017-06-21T06:17:47.670Z,11.10
2017-06-21T06:20:14.843Z,10.77
2017-06-21T06:22:41.258Z,10.83
2017-06-21T06:25:07.677Z,11.27
2017-06-21T06:27:34.406Z,10.57
2017-06-21T06:30:00.796Z,11.40
2017-06-21T06:32:27.197Z,10.30
2017-06-21T06:34:54.380Z,11.50
2017-06-21T06:37:20.837Z,11.03
2017-06-21T06:39:47.309Z,11.50
2017-06-21T06:42:14.456Z,10.37
2017-06-21T06:44:40.916Z,10.20
2017-06-21T06:47:07.327Z,10.97
2017-06-21T06:49:33.760Z,10.70
2017-06-21T06:52:00.899Z,9.33
2017-06-21T06:54:27.284Z,10.07
2017-06-21T06:56:53.699Z,10.07
2017-06-21T06:59:20.159Z,10.10
2017-06-21T07:01:46.633Z,9.23
2017-06-21T07:04:13.074Z,10.87
2017-06-21T07:06:40.221Z,11.23
2017-06-21T07:09:06.633Z,10.37
2017-06-21T07:11:33.079Z,9.87
2017-06-21T07:13:59.482Z,10.00
2017-06-21T07:16:25.903Z,10.30
2017-06-21T07:18:52.278Z,10.70
2017-06-21T07:21:18.699Z,10.60
2017-06-21T07:23:45.099Z,9.83
2017-06-21T07:26:11.466Z,10.33
2017-06-21T07:28:37.898Z,10.30
2017-06-21T07:31:04.314Z,9.77
2017-06-21T07:33:30.713Z,9.60
2017-06-21T07:35:57.141Z,10.70
2017-06-21T07:38:23.559Z,9.37
2017-06-21T07:40:50.725Z,9.17
2017-06-21T07:43:17.132Z,8.10
2017-06-21T07:45:44.288Z,8.90
2017-06-21T07:48:11.459Z,9.27
2017-06-21T07:50:37.897Z,10.40
2017-06-21T07:53:04.308Z,9.43
2017-06-21T07:55:31.444Z,7.87
2017-06-21T07:57:58.594Z,9.40
2017-06-21T08:00:25.076Z,7.77
2017-06-21T08:02:51.502Z,9.20
2017-06-21T08:05:17.913Z,8.63
2017-06-21T08:07:45.059Z,9.27
2017-06-21T08:10:12.198Z,8.97
2017-06-21T08:12:39.374Z,8.30
2017-06-21T08:15:05.771Z,8.00
2017-06-21T08:17:32.178Z,8.50
2017-06-21T08:19:58.612Z,7.87
2017-06-21T08:22:25.011Z,9.20
2017-06-21T08:24:51.430Z,9.00
2017-06-21T08:27:17.804Z,9.00
2017-06-21T08:29:44.188Z,8.70
2017-06-21T08:32:10.633Z,9.30
2017-06-21T08:34:37.056Z,9.23
2017-06-21T08:37:04.214Z,8.93
2017-06-21T08:39:30.636Z,8.50
2017-06-21T08:41:57.809Z,9.30
2017-06-21T08:44:24.236Z,9.00
2017-06-21T08:46:50.654Z,9.00
2017-06-21T08:49:17.788Z,8.80
2017-06-21T08:51:44.199Z,8.40
2017-06-21T08:54:10.628Z,8.97
2017-06-21T08:56:37.009Z,9.33
2017-06-21T08:59:03.485Z,9.20
2017-06-21T09:01:29.927Z,8.87
2017-06-21T09:03:56.379Z,8.23
2017-06-21T09:06:22.792Z,9.00
2017-06-21T09:08:49.204Z,8.60
2017-06-21T09:11:15.605Z,8.63
2017-06-21T09:13:42.082Z,8.93
2017-06-21T09:16:08.490Z,8.73
2017-06-21T09:18:34.904Z,8.40
2017-06-21T09:21:02.051Z,8.73
2017-06-21T09:23:29.215Z,8.83
2017-06-21T09:25:55.615Z,8.47
2017-06-21T09:28:22.086Z,9.63
2017-06-21T09:30:48.518Z,9.90
2017-06-21T09:33:14.973Z,8.23
2017-06-21T09:35:41.385Z,9.03
2017-06-21T09:38:07.787Z,7.97
2017-06-21T09:40:34.215Z,8.97
2017-06-21T09:43:01.373Z,10.17
2017-06-21T09:45:28.537Z,8.83
2017-06-21T09:47:55.662Z,9.07
2017-06-21T09:50:22.070Z,8.50
2017-06-21T09:52:48.496Z,9.50
2017-06-21T09:55:14.875Z,9.00
2017-06-21T09:57:42.052Z,8.53
2017-06-21T10:00:08.449Z,9.20
2017-06-21T10:02:35.586Z,8.80
2017-06-21T10:05:01.997Z,8.60
2017-06-21T10:07:28.533Z,8.83
2017-06-21T10:09:54.960Z,9.40
2017-06-21T10:12:21.379Z,8.30
2017-06-21T10:14:47.779Z,9.60
2017-06-21T10:17:14.216Z,9.03
2017-06-21T10:19:40.648Z,9.40
2017-06-21T10:22:07.097Z,8.33
2017-06-21T10:24:33.499Z,8.20
2017-06-21T10:27:00.659Z,9.20
2017-06-21T10:29:27.794Z,8.80
2017-06-21T10:31:54.201Z,8.23
2017-06-21T10:34:20.623Z,8.30
2017-06-21T10:36:47.020Z,8.50
2017-06-21T10:39:13.498Z,8.20
2017-06-21T10:41:39.931Z,9.13
2017-06-21T10:44:06.349Z,8.70
2017-06-21T10:46:32.809Z,9.00
2017-06-21T10:48:59.245Z,8.97
2017-06-21T10:51:25.642Z,8.50
2017-06-21T10:53:52.040Z,7.60
2017-06-21T10:56:19.181Z,7.27
2017-06-21T10:58:45.580Z,8.50
2017-06-21T11:01:11.952Z,7.37
2017-06-21T11:03:39.082Z,7.37
2017-06-21T11:06:05.500Z,6.63
2017-06-21T11:08:31.872Z,7.10
2017-06-21T11:10:59.081Z,6.83
2017-06-21T11:13:25.466Z,7.00
2017-06-21T11:15:51.903Z,6.83
2017-06-21T11:18:18.340Z,7.30
2017-06-21T11:20:44.772Z,7.23
2017-06-21T11:23:11.156Z,7.53
2017-06-21T11:25:37.558Z,7.00
2017-06-21T11:28:03.965Z,6.90
2017-06-21T11:30:30.335Z,7.37
2017-06-21T11:32:56.738Z,7.07
2017-06-21T11:35:23.170Z,6.90
2017-06-21T11:37:49.588Z,6.13
2017-06-21T11:40:16.053Z,7.00
2017-06-21T11:42:42.448Z,6.80
2017-06-21T11:45:09.619Z,6.97
2017-06-21T11:47:36.039Z,6.53
2017-06-21T11:50:02.412Z,6.33
2017-06-21T11:52:28.803Z,7.60
2017-06-21T11:54:55.970Z,7.20
2017-06-21T11:57:22.403Z,6.80
2017-06-21T11:59:48.826Z,7.10
2017-06-21T12:02:15.253Z,6.37
2017-06-21T12:04:41.672Z,6.63
2017-06-21T12:07:08.381Z,6.50
2017-06-21T12:09:34.768Z,6.60
2017-06-21T12:12:01.292Z,5.70
2017-06-21T12:14:28.453Z,5.93
2017-06-21T12:16:54.848Z,6.40
2017-06-21T12:19:21.272Z,5.87
2017-06-21T12:21:47.666Z,6.10
2017-06-21T12:24:14.072Z,5.43
2017-06-21T12:26:41.207Z,5.93
2017-06-21T12:29:07.628Z,6.40
2017-06-21T12:31:34.037Z,5.70
2017-06-21T12:34:00.425Z,5.70
2017-06-21T12:36:26.822Z,5.13
2017-06-21T12:38:53.240Z,5.63
2017-06-21T12:41:19.657Z,5.40
2017-06-21T12:43:46.080Z,6.20
2017-06-21T12:46:12.529Z,5.00
2017-06-21T12:48:39.033Z,5.60
2017-06-21T12:51:05.454Z,4.90
2017-06-21T12:53:31.853Z,5.47
2017-06-21T12:55:58.607Z,5.83
2017-06-21T12:58:25.756Z,5.53
2017-06-21T13:00:52.164Z,6.00
2017-06-21T13:03:18.588Z,5.30
2017-06-21T13:05:44.989Z,5.80
2017-06-21T13:08:11.404Z,5.67
2017-06-21T13:10:38.569Z,5.70
2017-06-21T13:13:04.977Z,5.90
2017-06-21T13:15:31.373Z,5.67
2017-06-21T13:17:57.780Z,5.37
2017-06-21T13:20:24.345Z,6.60
2017-06-21T13:22:50.737Z,5.97
2017-06-21T13:25:17.170Z,5.90
2017-06-21T13:27:43.576Z,6.57
2017-06-21T13:30:09.974Z,5.50
2017-06-21T13:32:36.418Z,6.53
2017-06-21T13:35:02.873Z,5.87
2017-06-21T13:37:29.275Z,6.03
2017-06-21T13:39:55.678Z,6.03
2017-06-21T13:42:22.071Z,5.27
2017-06-21T13:44:49.251Z,6.07
2017-06-21T13:47:15.660Z,5.50
2017-06-21T13:49:42.826Z,6.00
2017-06-21T13:52:09.303Z,6.60
2017-06-21T13:54:35.702Z,5.80
2017-06-21T13:57:02.123Z,5.30
2017-06-21T13:59:28.932Z,5.90
2017-06-21T14:01:55.319Z,6.00
2017-06-21T14:04:21.708Z,6.10
2017-06-21T14:06:48.869Z,5.57
2017-06-21T14:09:16.007Z,5.70
2017-06-21T14:11:42.393Z,6.30
2017-06-21T14:14:08.849Z,6.10
2017-06-21T14:16:35.250Z,5.70
2017-06-21T14:19:01.647Z,6.60
2017-06-21T14:21:28.068Z,5.30
2017-06-21T14:23:54.476Z,5.90
2017-06-21T14:26:20.844Z,5.83
2017-06-21T14:28:47.298Z,5.80
2017-06-21T14:31:13.695Z,5.60
2017-06-21T14:33:40.106Z,6.80
2017-06-21T14:36:06.546Z,5.70
2017-06-21T14:38:32.957Z,6.13
2017-06-21T14:40:59.350Z,5.67
2017-06-21T14:43:25.764Z,6.17
2017-06-21T14:45:52.188Z,5.43
2017-06-21T14:48:18.628Z,4.90
2017-06-21T14:50:45.074Z,6.00
2017-06-21T14:53:11.583Z,5.57
2017-06-21T14:55:38.016Z,5.40
2017-06-21T14:58:05.278Z,5.37
2017-06-21T15:00:31.686Z,5.47
2017-06-21T15:02:58.101Z,5.50
2017-06-21T15:05:24.508Z,6.43
2017-06-21T15:07:51.657Z,6.13
2017-06-21T15:10:18.028Z,6.10
2017-06-21T15:12:44.412Z,5.93
2017-06-21T15:15:10.818Z,5.87
2017-06-21T15:17:37.234Z,5.87
2017-06-21T15:20:03.632Z,5.30
2017-06-21T15:22:30.049Z,5.70
2017-06-21T15:24:56.452Z,6.10
2017-06-21T15:27:22.848Z,5.50
2017-06-21T15:29:49.330Z,5.13
2017-06-21T15:32:15.739Z,5.70
2017-06-21T15:34:42.176Z,7.10
2017-06-21T15:37:08.571Z,5.87
2017-06-21T15:39:34.973Z,5.20
2017-06-21T15:42:02.145Z,5.63
2017-06-21T15:44:28.568Z,5.20
2017-06-21T15:46:54.947Z,5.70
2017-06-21T15:49:21.369Z,5.97
2017-06-21T15:51:47.818Z,5.90
2017-06-21T15:54:14.305Z,6.50
2017-06-21T15:56:40.725Z,5.20
2017-06-21T15:59:07.895Z,5.10
2017-06-21T16:01:34.345Z,6.00
2017-06-21T16:04:13.829Z,5.70
2017-06-21T16:06:40.251Z,6.03
2017-06-21T16:09:06.682Z,5.00
2017-06-21T16:11:33.116Z,5.13
2017-06-21T16:13:59.502Z,6.07
2017-06-21T16:16:25.906Z,5.63
2017-06-21T16:18:52.308Z,5.50
2017-06-21T16:21:18.712Z,5.80
2017-06-21T16:23:45.139Z,5.70
2017-06-21T16:26:12.316Z,5.70
2017-06-21T16:28:38.731Z,5.63
2017-06-21T16:31:05.138Z,5.60
2017-06-21T16:33:32.278Z,5.83
2017-06-21T16:35:59.422Z,6.20
2017-06-21T16:38:25.830Z,6.00
2017-06-21T16:40:52.218Z,5.97
2017-06-21T16:43:18.624Z,5.90
2017-06-21T16:45:45.938Z,6.37
2017-06-21T16:48:12.341Z,6.50
2017-06-21T16:50:38.741Z,6.40
2017-06-21T16:53:05.901Z,5.47
2017-06-21T16:55:32.315Z,6.07
2017-06-21T16:57:58.750Z,6.53
2017-06-21T17:00:25.135Z,6.33
2017-06-21T17:02:51.530Z,6.80
2017-06-21T17:05:18.671Z,6.80
2017-06-21T17:07:45.851Z,7.27
2017-06-21T17:10:12.256Z,7.27
2017-06-21T17:12:39.431Z,6.83
2017-06-21T17:15:05.833Z,8.40
2017-06-21T17:17:32.278Z,7.37
2017-06-21T17:19:59.425Z,7.47
2017-06-21T17:22:26.566Z,7.90
2017-06-21T17:24:53.713Z,8.60
2017-06-21T17:27:20.128Z,8.40
2017-06-21T17:29:46.506Z,8.00
2017-06-21T17:32:13.109Z,8.17
2017-06-21T17:34:39.523Z,7.77
2017-06-21T17:37:06.034Z,8.93
2017-06-21T17:39:32.478Z,8.30
2017-06-21T17:41:58.881Z,7.90
2017-06-21T17:44:25.332Z,8.00
2017-06-21T17:46:51.776Z,8.20
2017-06-21T17:49:18.195Z,8.50
2017-06-21T17:51:44.588Z,8.37
2017-06-21T17:54:11.003Z,8.87
2017-06-21T17:56:37.389Z,8.53
2017-06-21T17:59:03.822Z,8.70
2017-06-21T18:01:30.235Z,9.37
2017-06-21T18:03:57.402Z,8.80
2017-06-21T18:06:23.833Z,9.33
2017-06-21T18:08:50.234Z,9.53
2017-06-21T18:11:17.432Z,10.00
2017-06-21T18:13:43.892Z,9.80
2017-06-21T18:16:10.458Z,10.23
2017-06-21T18:18:37.782Z,10.30
2017-06-21T18:21:04.190Z,11.50
2017-06-21T18:23:30.599Z,9.77
2017-06-21T18:25:57.040Z,10.27
2017-06-21T18:28:23.494Z,10.43
2017-06-21T18:30:49.910Z,10.63
2017-06-21T18:33:16.606Z,10.77
2017-06-21T18:35:43.003Z,9.93
2017-06-21T18:38:09.415Z,9.43
2017-06-21T18:40:35.825Z,11.50
2017-06-21T18:43:02.266Z,10.13
2017-06-21T18:45:28.730Z,9.13
2017-06-21T18:47:55.162Z,10.87
2017-06-21T18:50:21.593Z,10.67
2017-06-21T18:52:48.019Z,9.67
2017-06-21T18:55:14.422Z,10.73
2017-06-21T18:57:41.560Z,8.93
2017-06-21T19:00:07.993Z,9.27
2017-06-21T19:02:35.157Z,8.37
2017-06-21T19:05:02.294Z,9.40
2017-06-21T19:07:29.454Z,11.70
2017-06-21T19:09:56.636Z,10.93
2017-06-21T19:12:23.033Z,11.17
2017-06-21T19:14:50.219Z,10.30
2017-06-21T19:17:16.633Z,11.30
2017-06-21T19:19:43.036Z,11.40
2017-06-21T19:22:09.432Z,11.53
2017-06-21T19:24:35.861Z,12.23
2017-06-21T19:27:02.333Z,11.10
2017-06-21T19:29:29.514Z,13.00
2017-06-21T19:31:56.721Z,12.30
2017-06-21T19:34:23.219Z,12.17
2017-06-21T19:36:49.645Z,12.17
2017-06-21T19:39:16.081Z,12.40
2017-06-21T19:41:42.491Z,12.07
2017-06-21T19:44:09.661Z,11.07
2017-06-21T19:46:36.121Z,11.13
2017-06-21T19:49:02.542Z,10.17
2017-06-21T19:51:28.941Z,11.33
2017-06-21T19:53:56.132Z,10.70
2017-06-21T19:56:22.512Z,9.77
2017-06-21T19:58:49.696Z,10.63
2017-06-21T20:01:16.185Z,11.00
2017-06-21T20:03:42.623Z,12.07
2017-06-21T20:06:09.782Z,11.67
2017-06-21T20:08:36.968Z,10.97
2017-06-21T20:11:03.390Z,11.73
2017-06-21T20:13:30.559Z,11.47
2017-06-21T20:15:56.961Z,13.40
2017-06-21T20:18:23.380Z,11.40
2017-06-21T20:20:50.561Z,12.20
2017-06-21T20:23:16.998Z,12.23
2017-06-21T20:25:43.397Z,16.17
2017-06-21T20:28:09.881Z,19.10
2017-06-21T20:30:36.299Z,14.30
2017-06-21T20:33:02.704Z,13.30
2017-06-21T20:35:29.878Z,13.20
2017-06-21T20:37:56.287Z,12.20
2017-06-21T20:40:23.439Z,12.53
2017-06-21T20:42:50.576Z,13.47
2017-06-21T20:45:16.986Z,12.00
2017-06-21T20:47:43.429Z,12.30
2017-06-21T20:50:09.847Z,12.90
2017-06-21T20:52:36.720Z,12.00
2017-06-21T20:55:03.132Z,13.60
2017-06-21T20:57:29.556Z,12.57
2017-06-21T20:59:55.983Z,12.30
2017-06-21T21:02:22.395Z,13.33
2017-06-21T21:04:48.817Z,12.50
2017-06-21T21:07:15.257Z,12.40
2017-06-21T21:09:41.664Z,13.60
2017-06-21T21:12:08.837Z,14.60
2017-06-21T21:14:35.228Z,15.40
2017-06-21T21:17:01.629Z,13.23
2017-06-21T21:19:28.064Z,13.20
2017-06-21T21:21:54.501Z,11.80
2017-06-21T21:24:20.901Z,11.70
2017-06-21T21:26:47.337Z,12.40
2017-06-21T21:29:14.019Z,11.50
2017-06-21T21:31:40.422Z,13.30
2017-06-21T21:34:06.847Z,13.50
2017-06-21T21:36:33.247Z,14.37
2017-06-21T21:39:00.383Z,15.03
2017-06-21T21:41:26.794Z,13.40
2017-06-21T21:43:53.219Z,14.27
2017-06-21T21:46:19.622Z,16.10
2017-06-21T21:48:46.061Z,16.17
2017-06-21T21:51:12.460Z,15.87
2017-06-21T21:53:39.611Z,16.97
2017-06-21T21:56:06.761Z,15.07
2017-06-21T21:58:33.921Z,16.30
2017-06-21T22:01:01.258Z,15.57
2017-06-21T22:03:27.660Z,15.27
2017-06-21T22:05:54.027Z,16.53
2017-06-21T22:08:21.208Z,15.37
2017-06-21T22:10:47.638Z,15.47
2017-06-21T22:13:14.047Z,14.23
2017-06-21T22:15:41.226Z,14.23
2017-06-21T22:18:07.626Z,14.93
2017-06-21T22:20:34.799Z,14.83
2017-06-21T22:23:01.233Z,13.83
2017-06-21T22:25:27.635Z,14.87
2017-06-21T22:27:54.083Z,15.57
2017-06-21T22:30:21.282Z,13.47
2017-06-21T22:32:47.687Z,14.10
2017-06-21T22:35:14.075Z,14.37
2017-06-21T22:37:40.447Z,14.03
2017-06-21T22:40:06.858Z,14.83
2017-06-21T22:42:33.979Z,14.53
2017-06-21T22:45:00.389Z,15.17
2017-06-21T22:47:26.821Z,16.60
2017-06-21T22:49:53.244Z,15.73
2017-06-21T22:52:19.659Z,14.43
2017-06-21T22:54:46.061Z,14.73
2017-06-21T22:57:12.469Z,16.30
2017-06-21T22:59:38.886Z,16.13
2017-06-21T23:02:05.290Z,15.93
2017-06-21T23:04:31.697Z,16.20
2017-06-21T23:06:58.872Z,17.03
2017-06-21T23:09:25.324Z,15.90
2017-06-21T23:11:51.736Z,15.97
2017-06-21T23:14:18.170Z,15.73
2017-06-21T23:16:44.613Z,16.37
2017-06-21T23:19:11.045Z,15.90
2017-06-21T23:21:37.475Z,15.53
2017-06-21T23:24:03.866Z,15.87
2017-06-21T23:26:30.333Z,16.40
2017-06-21T23:28:56.769Z,18.43
2017-06-21T23:31:23.187Z,16.30
2017-06-21T23:33:50.341Z,17.10
2017-06-21T23:36:17.489Z,18.30
2017-06-21T23:38:44.634Z,16.50
2017-06-21T23:41:11.774Z,16.57
2017-06-21T23:43:38.953Z,15.47
2017-06-21T23:46:05.348Z,16.43
2017-06-21T23:48:31.766Z,16.53
2017-06-21T23:50:58.153Z,17.07
2017-06-21T23:53:24.556Z,15.90
2017-06-21T23:55:51.715Z,16.30
2017-06-21T23:58:18.863Z,16.40
